Latest Weather Observations for Warburton

IDW60801

Issued at 4:02 pm WST Tuesday 30 June 2015 (issued every 30 minutes, with the page automatically refreshed every 10 minutes)

About weather observations | Map of weather stations | Latest weather observations for WA | Other Formats
Station Details ID: 013011 Name: WARBURTON AIRFIELD Lat: -26.13 Lon: 126.58 Height: 459.0 m
Data from the previous 72 hours. | See also: Recent months at Warburton
Date/Time
WST
Temp
°C
App
Temp
°C
Dew
Point
Rel
Hum
%
Delta-T
°C
Wind Press
QNH
hPa
Press
MSL
hPa
Rain
since 9 am
mm
Dir
 
Spd
km/h
Gust
km/h
Spd
kts
Gust
kts
30/04:00pm 22.6 19.7 2.7 27 9.6 ESE 7 11 4 6 1025.0 - 0.0
30/03:30pm 23.0 20.7 3.0 27 9.8 SW 4 9 2 5 1024.8 - 0.0
30/03:00pm 22.5 18.9 3.1 28 9.5 SE 11 15 6 8 1024.9 1024.4 0.0
30/02:30pm 22.9 19.7 2.9 27 9.8 ENE 9 15 5 8 1025.1 - 0.0
30/02:00pm 23.0 19.5 3.5 28 9.7 E 11 17 6 9 1025.3 - 0.0
30/01:30pm 22.8 19.3 3.4 28 9.6 NE 11 20 6 11 1025.4 - 0.0
30/01:00pm 22.6 19.1 3.7 29 9.4 E 11 15 6 8 1025.4 - 0.0
30/12:30pm 22.4 20.0 4.5 31 9.0 ESE 6 15 3 8 1026.1 - 0.0
30/12:00pm 21.6 19.0 4.2 32 8.6 N 7 15 4 8 1026.6 1026.0 0.0
30/11:30am 21.6 17.6 4.7 33 8.5 NNE 15 24 8 13 1027.2 - 0.0
30/11:00am 21.3 17.4 5.2 35 8.1 NNE 15 22 8 12 1027.8 - 0.0
30/10:30am 20.2 15.9 5.1 37 7.6 NNE 17 24 9 13 1028.0 - 0.0
30/10:00am 19.3 14.7 5.4 40 7.0 NE 19 28 10 15 1028.4 - 0.0
30/09:30am 18.0 13.1 5.2 43 6.3 NE 20 28 11 15 1028.5 - 0.0
30/09:00am 17.0 11.8 5.3 46 5.7 NE 22 32 12 17 1028.5 1027.9 0.0
30/08:30am 15.8 10.8 4.8 48 5.3 NE 20 28 11 15 1028.4 - 0.0
30/08:00am 15.3 10.5 4.7 49 5.1 ENE 19 24 10 13 1028.0 - 0.0
30/07:30am 14.3 11.3 4.3 51 4.7 E 9 15 5 8 1027.7 - 0.0
30/07:00am 10.9 8.2 3.5 60 3.3 SE 7 9 4 5 1027.2 - 0.0
30/06:30am 10.0 5.7 3.3 63 3.0 SE 15 17 8 9 1026.8 - 0.0
30/06:00am 10.0 6.1 3.3 63 3.0 ESE 13 17 7 9 1026.6 1026.0 0.0
30/05:30am 9.5 5.5 3.0 64 2.9 ESE 13 17 7 9 1026.4 - 0.0
30/05:00am 9.7 5.4 3.0 63 3.0 ESE 15 19 8 10 1026.2 - 0.0
30/04:30am 9.8 5.1 3.1 63 3.0 SE 17 20 9 11 1026.2 - 0.0
30/04:00am 9.8 5.5 3.1 63 3.0 ESE 15 19 8 10 1026.1 - 0.0
30/03:30am 10.1 5.8 3.2 62 3.1 ESE 15 19 8 10 1026.1 - 0.0
30/03:00am 10.1 6.2 3.2 62 3.1 ESE 13 17 7 9 1026.1 1025.5 0.0
30/02:30am 10.4 6.5 3.2 61 3.2 ESE 13 15 7 8 1026.1 - 0.0
30/02:00am 10.5 6.5 3.1 60 3.3 ESE 13 15 7 8 1025.9 - 0.0
30/01:30am 10.5 6.6 3.3 61 3.2 ESE 13 17 7 9 1026.3 - 0.0
30/01:00am 10.7 7.1 3.0 59 3.4 ESE 11 15 6 8 1026.4 - 0.0
30/12:30am 11.1 7.2 3.2 58 3.6 ESE 13 15 7 8 1026.4 - 0.0
30/12:00am 11.3 8.1 3.1 57 3.7 ESE 9 13 5 7 1026.5 1025.9 0.0
 
Date/Time
WST
Temp
°C
App
Temp
°C
Dew
Point
Rel
Hum
%
Delta-T
°C
Wind Press
QNH
hPa
Press
MSL
hPa
Rain
since 9 am
mm
Dir
 
Spd
km/h
Gust
km/h
Spd
kts
Gust
kts
29/11:30pm 11.9 7.6 3.4 56 3.9 ESE 15 20 8 11 1026.4 - 0.0
29/11:00pm 12.3 7.6 3.3 54 4.1 ESE 17 20 9 11 1026.4 - 0.0
29/10:30pm 12.0 8.4 3.0 54 4.1 SE 11 13 6 7 1026.6 - 0.0
29/10:00pm 11.6 7.9 2.4 53 4.1 ESE 11 13 6 7 1026.6 - 0.0
29/09:30pm 11.7 8.0 2.2 52 4.2 SE 11 13 6 7 1026.6 - 0.0
29/09:00pm 11.4 8.0 1.9 52 4.1 SE 9 11 5 6 1026.5 1025.9 0.0
29/08:30pm 12.3 8.9 1.9 49 4.6 SE 9 11 5 6 1026.6 - 0.0
29/08:00pm 12.7 9.3 2.0 48 4.7 SE 9 11 5 6 1026.6 - 0.0
29/07:30pm 13.8 10.4 1.8 44 5.4 SSE 9 11 5 6 1026.6 - 0.0
29/07:00pm 15.1 11.0 2.0 41 5.9 SSE 13 15 7 8 1026.5 - 0.0
29/06:30pm 15.0 11.6 1.9 41 5.9 SSE 9 11 5 6 1026.5 - 0.0
29/06:00pm 16.4 12.7 2.1 38 6.5 SSE 11 13 6 7 1026.1 1025.5 0.0
29/05:30pm 17.3 13.6 2.5 37 6.9 S 11 15 6 8 1025.9 - 0.0
29/05:00pm 18.2 14.8 2.1 34 7.5 S 9 11 5 6 1025.7 - 0.0
29/04:30pm 19.5 15.9 2.8 33 8.0 S 11 15 6 8 1025.5 - 0.0
29/04:00pm 19.9 16.3 2.7 32 8.2 S 11 26 6 14 1025.3 - 0.0
29/03:30pm 20.6 17.4 2.9 31 8.5 SSE 9 19 5 10 1025.0 - 0.0
29/03:00pm 20.4 16.8 2.7 31 8.4 SSE 11 17 6 9 1024.9 1024.4 0.0
29/02:30pm 20.2 16.6 3.0 32 8.3 SSE 11 17 6 9 1024.7 - 0.0
29/02:00pm 20.4 17.2 3.2 32 8.3 S 9 17 5 9 1024.6 - 0.0
29/01:30pm 20.7 17.6 3.4 32 8.4 SSE 9 15 5 8 1024.8 - 0.0
29/01:00pm 20.4 17.6 3.2 32 8.3 ENE 7 17 4 9 1025.2 - 0.0
29/12:30pm 19.6 15.6 2.9 33 8.0 NE 13 30 7 16 1025.7 - 0.0
29/12:00pm 19.5 15.2 3.2 34 7.8 E 15 30 8 16 1026.3 1025.7 0.0
29/11:30am 19.4 15.5 3.2 34 7.8 E 13 19 7 10 1026.9 - 0.0
29/11:00am 18.6 14.7 3.3 36 7.3 E 13 22 7 12 1027.3 - 0.0
29/10:30am 18.1 14.2 3.2 37 7.1 ESE 13 20 7 11 1027.6 - 0.0
29/10:00am 16.9 13.3 3.2 40 6.5 SE 11 17 6 9 1027.9 - 0.0
29/09:30am 15.1 11.2 3.3 45 5.5 SE 13 17 7 9 1028.2 - 0.0
29/09:00am 13.8 9.9 3.6 50 4.7 SE 13 17 7 9 1028.2 1027.7 0.0
29/08:30am 12.1 7.8 3.1 54 4.1 ESE 15 19 8 10 1028.2 - 0.0
29/08:00am 10.6 6.1 2.4 57 3.6 ESE 15 20 8 11 1028.0 - 0.0
29/07:30am 9.0 4.5 1.9 61 3.0 ESE 15 22 8 12 1027.6 - 0.0
29/07:00am 7.7 2.7 1.5 65 2.6 ESE 17 22 9 12 1027.2 - 0.0
29/06:30am 6.9 1.9 1.2 67 2.3 ESE 17 22 9 12 1027.0 - 0.0
29/06:00am 7.2 2.2 1.3 66 2.4 ESE 17 22 9 12 1026.6 1026.0 0.0
29/05:30am 7.4 2.7 1.0 64 2.6 ESE 15 20 8 11 1026.7 - 0.0
29/05:00am 7.6 3.3 0.8 62 2.8 ESE 13 17 7 9 1026.6 - 0.0
29/04:30am 7.3 3.3 0.7 63 2.7 ESE 11 15 6 8 1026.6 - 0.0
29/04:00am 7.0 3.0 0.2 62 2.7 ESE 11 15 6 8 1026.6 - 0.0
29/03:30am 7.5 3.1 0.3 60 2.9 SE 13 17 7 9 1026.8 - 0.0
29/03:00am 7.3 3.2 -0.2 59 3.0 ESE 11 13 6 7 1026.7 1026.1 0.0
29/02:30am 7.8 3.7 -0.2 57 3.2 ESE 11 17 6 9 1026.6 - 0.0
29/02:00am 7.8 3.3 -0.4 56 3.3 SE 13 15 7 8 1026.7 - 0.0
29/01:30am 8.3 3.4 -0.4 54 3.5 ESE 15 17 8 9 1026.7 - 0.0
29/01:00am 8.7 3.8 -0.3 53 3.6 SE 15 17 8 9 1026.8 - 0.0
29/12:30am 8.8 3.9 -0.5 52 3.8 SE 15 17 8 9 1026.8 - 0.0
29/12:00am 9.0 4.5 -0.6 51 3.8 ESE 13 17 7 9 1026.9 1026.4 0.0
 
Date/Time
WST
Temp
°C
App
Temp
°C
Dew
Point
Rel
Hum
%
Delta-T
°C
Wind Press
QNH
hPa
Press
MSL
hPa
Rain
since 9 am
mm
Dir
 
Spd
km/h
Gust
km/h
Spd
kts
Gust
kts
28/11:30pm 9.3 4.8 -0.6 50 4.0 ESE 13 17 7 9 1027.1 - 0.0
28/11:00pm 9.4 4.8 -0.8 49 4.1 ESE 13 19 7 10 1027.2 - 0.0
28/10:30pm 9.4 5.2 -0.8 49 4.1 SE 11 13 6 7 1027.4 - 0.0
28/10:00pm 10.6 6.0 -0.8 45 4.7 SE 13 17 7 9 1027.7 - 0.0
28/09:30pm 10.8 6.6 -0.6 45 4.7 ESE 11 17 6 9 1027.6 - 0.0
28/09:00pm 10.6 6.0 -1.1 44 4.7 ESE 13 15 7 8 1027.6 1027.1 0.0
28/08:30pm 10.7 6.4 -1.4 43 4.9 SE 11 13 6 7 1027.7 - 0.0
28/08:00pm 11.2 6.9 -1.5 41 5.1 ESE 11 13 6 7 1027.6 - 0.0
28/07:30pm 12.0 7.7 -1.9 38 5.6 ESE 11 13 6 7 1027.6 - 0.0
28/07:00pm 13.3 8.7 -1.4 36 6.1 SE 13 17 7 9 1027.4 - 0.0
28/06:30pm 14.3 9.6 -1.7 33 6.6 SE 13 15 7 8 1027.2 - 0.0
28/06:00pm 15.0 10.3 -1.5 32 6.9 SE 13 17 7 9 1026.9 1026.4 0.0
28/05:30pm 15.9 11.2 -1.6 30 7.4 SE 13 17 7 9 1026.6 - 0.0
28/05:00pm 16.7 11.7 -1.4 29 7.7 SE 15 22 8 12 1026.1 - 0.0
28/04:30pm 17.7 12.3 -1.0 28 8.1 ESE 17 22 9 12 1025.7 - 0.0
28/04:00pm 18.2 12.8 -1.1 27 8.4 SE 17 24 9 13 1025.4 - 0.0
28/03:30pm 18.5 12.6 -1.9 25 8.8 ESE 19 26 10 14 1025.3 - 0.0
28/03:00pm 18.8 12.9 -1.1 26 8.7 SE 20 30 11 16 1025.3 1024.8 0.0
28/02:30pm 19.2 13.5 -0.7 26 8.8 E 19 26 10 14 1025.4 - 0.0
28/02:00pm 19.0 14.0 -0.9 26 8.8 ESE 15 24 8 13 1025.6 - 0.0
28/01:30pm 18.9 14.4 -0.5 27 8.6 E 13 20 7 11 1025.6 - 0.0
28/01:00pm 18.7 13.5 -0.2 28 8.4 E 17 28 9 15 1025.9 - 0.0
28/12:30pm 18.8 13.6 -0.1 28 8.5 E 17 37 9 20 1026.5 - 0.0
28/12:00pm 18.2 13.4 0.4 30 8.0 E 15 24 8 13 1027.1 1026.6 0.0
28/11:30am 17.7 12.6 0.8 32 7.6 E 17 26 9 14 1027.6 - 0.0
28/11:00am 17.3 12.2 0.5 32 7.5 E 17 24 9 13 1028.4 - 0.0
28/10:30am 16.7 11.4 1.6 36 6.9 NE 19 26 10 14 1028.8 - 0.0
28/10:00am 16.4 10.9 2.1 38 6.6 NE 20 30 11 16 1029.2 - 0.0
28/09:30am 16.0 10.7 2.1 39 6.4 ENE 19 30 10 16 1029.4 - 0.0
28/09:00am 14.2 8.8 1.5 42 5.6 ENE 19 26 10 14 1029.7 1029.2 0.0
28/08:30am 12.6 6.5 0.7 44 5.1 ENE 22 32 12 17 1029.5 - 0.0
28/08:00am 12.0 6.5 0.8 46 4.8 ENE 19 26 10 14 1029.4 - 0.0
28/07:30am 9.2 5.7 -1.5 47 4.2 SE 7 11 4 6 1028.9 - 0.0
28/07:00am 6.0 2.2 -3.4 51 3.4 SE 7 11 4 6 1028.5 - 0.0
28/06:30am 4.2 0.3 -4.5 53 3.0 SSE 7 9 4 5 1028.0 - 0.0
28/06:00am 4.4 0.5 -4.6 52 3.1 SSE 7 9 4 5 1027.9 1027.4 0.0
28/05:30am 5.4 1.3 -3.4 53 3.2 ESE 9 11 5 6 1027.7 - 0.0
28/05:00am 5.7 1.9 -3.9 50 3.4 SE 7 9 4 5 1027.5 - 0.0
28/04:30am 7.1 3.0 -3.4 47 3.9 ESE 9 13 5 7 1027.3 - 0.0
28/04:00am 7.4 2.5 -3.4 46 4.0 SE 13 15 7 8 1027.3 - 0.0
28/03:30am 7.2 2.6 -4.5 43 4.2 SE 11 11 6 6 1027.2 - 0.0
28/03:00am 6.8 2.1 -5.2 42 4.2 ESE 11 15 6 8 1027.3 1026.8 0.0
28/02:30am 6.8 2.1 -5.5 41 4.3 SE 11 15 6 8 1027.2 - 0.0
28/02:00am 7.0 2.3 -5.3 41 4.3 SE 11 13 6 7 1027.2 - 0.0
28/01:30am 6.9 2.2 -5.4 41 4.3 SE 11 13 6 7 1027.4 - 0.0
28/01:00am 7.0 2.7 -5.0 42 4.3 SE 9 11 5 6 1027.5 - 0.0
28/12:30am 7.1 2.8 -4.9 42 4.3 SE 9 11 5 6 1027.5 - 0.0
28/12:00am 7.4 3.1 -4.7 42 4.3 SE 9 11 5 6 1027.5 1027.0 0.0
 
Date/Time
WST
Temp
°C
App
Temp
°C
Dew
Point
Rel
Hum
%
Delta-T
°C
Wind Press
QNH
hPa
Press
MSL
hPa
Rain
since 9 am
mm
Dir
 
Spd
km/h
Gust
km/h
Spd
kts
Gust
kts
27/11:30pm 8.0 3.7 -4.8 40 4.6 SE 9 11 5 6 1027.5 - 0.0
27/11:00pm 8.1 3.5 -4.3 41 4.5 SE 11 11 6 6 1027.4 - 0.0
27/10:30pm 6.7 2.8 -5.0 43 4.1 SE 7 9 4 5 1027.5 - 0.0
27/10:00pm 7.4 3.1 -4.7 42 4.3 SE 9 9 5 5 1027.6 - 0.0
27/09:30pm 7.6 3.3 -4.8 41 4.4 SE 9 9 5 5 1027.7 - 0.0
27/09:00pm 7.9 3.6 -4.8 40 4.5 SE 9 9 5 5 1027.7 1027.2 0.0
27/08:30pm 9.1 5.2 -4.4 38 5.0 SE 7 9 4 5 1027.7 - 0.0
27/08:00pm 10.3 6.4 -4.5 35 5.5 SE 7 9 4 5 1027.7 - 0.0
27/07:30pm 11.0 6.7 -4.6 33 5.9 SE 9 9 5 5 1027.5 - 0.0
27/07:00pm 11.7 7.4 -4.8 31 6.2 SE 9 11 5 6 1027.4 - 0.0
27/06:30pm 12.9 8.6 -4.7 29 6.7 SE 9 9 5 5 1027.2 - 0.0
27/06:00pm 14.5 10.2 -4.7 26 7.4 ESE 9 11 5 6 1027.0 1026.5 0.0
27/05:30pm 16.4 11.3 -5.3 22 8.5 SE 13 17 7 9 1026.7 - 0.0
27/05:00pm 17.5 12.5 -4.4 22 8.9 ESE 13 19 7 10 1026.4 - 0.0
27/04:30pm 18.6 13.2 -4.1 21 9.3 ESE 15 20 8 11 1026.2 - 0.0

Other Formats:

Comma delimited format used in spreadsheet applications
http://www.bom.gov.au/fwo/IDW60801/IDW60801.94457.axf

JavaScript Object Notation format (JSON) in row-major order
http://www.bom.gov.au/fwo/IDW60801/IDW60801.94457.json